ESSV/VBY METAR and TAF weather

Enter ICAO airport designator
Station Type Date Time Source
ESSV METAR 2018/07/21 03:50 UTC NOAA

ESSV 210350Z AUTO 30004KT 9999 NCD 21/18 Q1007


Station Type Date Time Source
ESSV Decoded METAR 2018/07/21 03:50 UTC NOAA

Visby Flygplats, Sweden (ESSV) 57-40N 018-21E 47M
Jul 20, 2018 - 11:50 PM EDT / 2018.07.21 0350 UTC
Wind: from the WNW (300 degrees) at 5 MPH (4 KT):0
Visibility: greater than 7 mile(s):0
Temperature: 69 F (21 C)
Dew Point: 64 F (18 C)
Relative Humidity: 82%
Pressure (altimeter): 29.74 in. Hg (1007 hPa)
ob: ESSV 210350Z AUTO 30004KT 9999 NCD 21/18 Q1007
cycle: 4

Station Type Date Time Source
ESSV TAF 2017/09/20 09:39 UTC NOAA

TAF COR TAF COR ESSV 200840Z 2009/2021 10005KT 9999 BKN030 PROB40 2009/2016 4000 TS SHRA BKN015CB


Example: see airport list